createdAt,value
2019-04-22T00:00:42.416Z,25.93
2019-04-22T00:01:55.302Z,29.03
2019-04-22T00:03:04.569Z,35.50
2019-04-22T00:04:13.504Z,26.93
2019-04-22T00:05:39.565Z,37.07
2019-04-22T00:06:51.651Z,30.27
2019-04-22T00:08:06.832Z,30.70
2019-04-22T00:09:11.188Z,29.27
2019-04-22T00:10:19.507Z,34.87
2019-04-22T00:11:29.359Z,35.87
2019-04-22T00:13:51.964Z,30.30
2019-04-22T00:14:54.230Z,31.13
2019-04-22T00:15:59.335Z,28.07
2019-04-22T00:17:16.320Z,29.90
2019-04-22T00:18:22.356Z,30.53
2019-04-22T00:20:43.644Z,36.47
2019-04-22T00:21:47.706Z,29.97
2019-04-22T00:22:52.078Z,33.10
2019-04-22T00:24:04.497Z,26.70
2019-04-22T00:25:17.805Z,32.87
2019-04-22T00:26:23.990Z,28.20
2019-04-22T00:27:35.621Z,28.57
2019-04-22T00:28:43.920Z,29.40
2019-04-22T00:29:59.895Z,29.53
2019-04-22T00:31:02.894Z,29.27
2019-04-22T00:32:32.021Z,34.87
2019-04-22T00:33:39.317Z,34.13
2019-04-22T00:34:51.921Z,30.17
2019-04-22T00:36:01.219Z,32.10
2019-04-22T00:37:10.948Z,34.17
2019-04-22T00:38:17.673Z,32.60
2019-04-22T00:39:32.943Z,31.90
2019-04-22T00:40:39.318Z,36.00
2019-04-22T00:41:43.928Z,34.03
2019-04-22T00:42:53.819Z,31.37
2019-04-22T00:44:08.383Z,33.40
2019-04-22T00:45:11.705Z,29.23
2019-04-22T00:46:19.690Z,32.57
2019-04-22T00:47:30.559Z,33.90
2019-04-22T00:48:35.637Z,33.87
2019-04-22T00:51:05.779Z,34.80
2019-04-22T00:53:19.695Z,34.53
2019-04-22T00:54:21.558Z,33.43
2019-04-22T00:55:31.256Z,27.97
2019-04-22T00:56:40.970Z,29.50
2019-04-22T00:57:46.462Z,31.73
2019-04-22T00:59:02.847Z,28.30
2019-04-22T01:00:13.038Z,28.63
2019-04-22T01:01:20.732Z,30.83
2019-04-22T01:02:27.180Z,29.80
2019-04-22T01:03:34.292Z,32.37
2019-04-22T01:04:46.530Z,38.23
2019-04-22T01:05:48.231Z,38.67
2019-04-22T01:07:01.520Z,34.37
2019-04-22T01:08:17.771Z,32.50
2019-04-22T01:09:17.429Z,33.43
2019-04-22T01:10:28.769Z,35.63
2019-04-22T01:11:33.916Z,28.10
2019-04-22T01:12:44.037Z,39.30
2019-04-22T01:13:50.072Z,37.40
2019-04-22T01:15:01.019Z,34.57
2019-04-22T01:16:10.803Z,34.73
2019-04-22T01:17:11.657Z,36.23
2019-04-22T01:18:24.996Z,35.13
2019-04-22T01:19:47.150Z,34.20
2019-04-22T01:21:07.219Z,35.73
2019-04-22T01:21:58.363Z,34.10
2019-04-22T01:23:05.602Z,38.43
2019-04-22T01:24:16.770Z,34.90
2019-04-22T01:25:28.157Z,34.80
2019-04-22T01:26:30.042Z,33.90
2019-04-22T01:27:41.862Z,33.07
2019-04-22T01:28:46.074Z,34.83
2019-04-22T01:29:54.346Z,31.20
2019-04-22T01:30:59.441Z,35.07
2019-04-22T01:32:00.814Z,33.63
2019-04-22T01:33:19.222Z,29.90
2019-04-22T01:34:33.451Z,35.90
2019-04-22T01:35:39.847Z,39.13
2019-04-22T01:36:58.709Z,32.70
2019-04-22T01:38:01.404Z,36.10
2019-04-22T01:39:16.377Z,32.77
2019-04-22T01:41:42.388Z,35.07
2019-04-22T01:42:48.500Z,33.97
2019-04-22T01:44:00.773Z,39.03
2019-04-22T01:44:58.191Z,33.93
2019-04-22T01:46:08.545Z,38.23
2019-04-22T01:47:21.290Z,33.47
2019-04-22T01:48:35.667Z,41.87
2019-04-22T01:49:34.377Z,34.53
2019-04-22T01:50:46.278Z,34.53
2019-04-22T01:51:59.745Z,34.33
2019-04-22T01:53:08.591Z,41.33
2019-04-22T01:54:23.374Z,33.70
2019-04-22T01:55:24.912Z,35.47
2019-04-22T01:56:27.571Z,31.17
2019-04-22T01:57:35.262Z,32.23
2019-04-22T01:58:38.078Z,34.60
2019-04-22T01:59:48.753Z,35.30
2019-04-22T02:01:05.939Z,36.53
2019-04-22T02:02:13.942Z,37.80
2019-04-22T02:03:26.421Z,32.63
2019-04-22T02:04:48.068Z,34.80
2019-04-22T02:05:40.653Z,35.47
2019-04-22T02:06:48.247Z,34.83
2019-04-22T02:08:02.394Z,37.53
2019-04-22T02:09:10.948Z,36.10
2019-04-22T02:10:12.345Z,35.77
2019-04-22T02:11:29.280Z,38.23
2019-04-22T02:12:33.393Z,34.47
2019-04-22T02:13:48.027Z,38.93
2019-04-22T02:15:11.815Z,34.67
2019-04-22T02:15:58.730Z,40.03
2019-04-22T02:17:14.054Z,36.03
2019-04-22T02:18:23.381Z,35.40
2019-04-22T02:19:37.381Z,32.77
2019-04-22T02:20:31.560Z,37.03
2019-04-22T02:21:42.315Z,35.40
2019-04-22T02:23:43.895Z,36.67
2019-04-22T02:24:39.628Z,35.67
2019-04-22T02:25:51.604Z,32.67
2019-04-22T02:26:54.571Z,37.00
2019-04-22T02:28:09.271Z,36.83
2019-04-22T02:29:15.120Z,36.37
2019-04-22T02:30:22.614Z,33.23
2019-04-22T02:33:06.123Z,42.10
2019-04-22T02:35:04.049Z,37.77
2019-04-22T02:37:19.246Z,37.57
2019-04-22T02:38:46.732Z,41.30
2019-04-22T02:41:12.872Z,35.13
2019-04-22T02:41:55.078Z,34.47
2019-04-22T02:43:18.401Z,34.23
2019-04-22T02:44:13.879Z,36.53
2019-04-22T02:45:28.781Z,37.10
2019-04-22T02:46:44.377Z,42.37
2019-04-22T02:47:36.247Z,35.93
2019-04-22T02:51:12.552Z,40.50
2019-04-22T02:52:20.324Z,32.03
2019-04-22T02:53:48.661Z,33.10
2019-04-22T02:54:38.352Z,38.83
2019-04-22T02:55:41.277Z,37.83
2019-04-22T02:57:57.836Z,37.60
2019-04-22T03:00:21.447Z,35.37
2019-04-22T03:02:43.888Z,35.83
2019-04-22T03:03:50.535Z,38.43
2019-04-22T03:04:44.028Z,33.10
2019-04-22T03:06:11.471Z,33.67
2019-04-22T03:07:03.759Z,35.03
2019-04-22T03:08:23.563Z,36.17
2019-04-22T03:10:47.386Z,33.97
2019-04-22T03:11:58.610Z,37.97
2019-04-22T03:12:54.095Z,35.97
2019-04-22T03:15:11.652Z,34.83
2019-04-22T03:16:28.846Z,32.70
2019-04-22T03:18:53.219Z,37.97
2019-04-22T03:20:58.301Z,39.13
2019-04-22T03:22:10.167Z,34.07
2019-04-22T03:24:36.204Z,32.53
2019-04-22T03:26:01.283Z,34.50
2019-04-22T03:27:42.690Z,34.17
2019-04-22T03:30:45.533Z,35.90
2019-04-22T03:32:46.122Z,35.90
2019-04-22T03:33:16.585Z,33.33
2019-04-22T03:37:04.422Z,31.97
2019-04-22T03:41:27.224Z,33.00
2019-04-22T03:42:10.025Z,32.30
2019-04-22T03:43:35.779Z,30.13
2019-04-22T03:44:39.209Z,28.97
2019-04-22T03:45:58.679Z,30.20
2019-04-22T03:48:05.258Z,29.23
2019-04-22T03:50:27.921Z,29.90
2019-04-22T03:51:38.369Z,32.00
2019-04-22T03:52:27.264Z,34.20
2019-04-22T03:53:55.090Z,29.70
2019-04-22T03:55:09.303Z,27.90
2019-04-22T03:56:19.048Z,33.47
2019-04-22T03:57:36.901Z,29.13
2019-04-22T03:58:13.105Z,29.17
2019-04-22T04:00:45.585Z,28.93
2019-04-22T04:03:00.990Z,29.93
2019-04-22T04:05:24.355Z,29.63
2019-04-22T04:06:32.683Z,38.17
2019-04-22T04:09:49.227Z,25.07
2019-04-22T04:11:20.543Z,27.53
2019-04-22T04:14:26.341Z,27.73
2019-04-22T04:16:54.807Z,31.00
2019-04-22T04:19:07.187Z,27.40
2019-04-22T04:20:10.669Z,22.27
2019-04-22T04:21:25.983Z,30.63
2019-04-22T04:23:49.611Z,27.10
2019-04-22T04:26:33.610Z,23.77
2019-04-22T04:28:29.775Z,28.33
2019-04-22T04:30:30.268Z,23.53
2019-04-22T04:31:41.354Z,24.97
2019-04-22T04:35:18.922Z,25.70
2019-04-22T04:38:28.733Z,24.13
2019-04-22T04:39:49.969Z,22.40
2019-04-22T04:40:46.095Z,36.50
2019-04-22T04:42:25.428Z,24.50
2019-04-22T04:45:34.694Z,20.23
2019-04-22T04:46:42.127Z,26.80
2019-04-22T04:52:19.294Z,22.87
2019-04-22T04:54:30.232Z,21.70
2019-04-22T04:55:35.116Z,18.77
2019-04-22T04:56:44.488Z,24.83
2019-04-22T04:58:03.470Z,22.27
2019-04-22T05:01:28.919Z,21.47
2019-04-22T05:02:48.923Z,23.10
2019-04-22T05:04:59.369Z,25.57
2019-04-22T05:05:58.985Z,22.70
2019-04-22T05:08:14.772Z,22.90
2019-04-22T05:11:47.403Z,22.30
2019-04-22T05:12:53.559Z,22.43
2019-04-22T05:15:09.048Z,19.40
2019-04-22T05:17:23.015Z,25.33
2019-04-22T05:18:29.409Z,22.73
2019-04-22T05:20:50.650Z,24.50
2019-04-22T05:21:53.471Z,20.60
2019-04-22T05:23:16.667Z,21.53
2019-04-22T05:24:15.065Z,25.10
2019-04-22T05:25:18.973Z,20.70
2019-04-22T05:26:31.232Z,20.70
2019-04-22T05:27:35.884Z,23.57
2019-04-22T05:28:35.136Z,23.80
2019-04-22T05:31:01.672Z,27.03
2019-04-22T05:32:01.212Z,21.30
2019-04-22T05:33:14.215Z,20.83
2019-04-22T05:34:26.423Z,24.40
2019-04-22T05:35:31.184Z,22.63
2019-04-22T05:36:44.447Z,22.97
2019-04-22T05:39:00.110Z,20.10
2019-04-22T05:40:19.337Z,22.20
2019-04-22T05:41:16.249Z,27.47
2019-04-22T05:42:26.891Z,23.10
2019-04-22T05:43:38.640Z,18.43
2019-04-22T05:44:45.140Z,18.77
2019-04-22T05:45:54.551Z,18.10
2019-04-22T05:46:53.235Z,18.40
2019-04-22T05:48:02.899Z,20.17
2019-04-22T05:50:36.754Z,19.50
2019-04-22T05:51:38.644Z,22.63
2019-04-22T05:52:48.457Z,17.77
2019-04-22T05:54:05.441Z,21.47
2019-04-22T05:55:08.508Z,22.90
2019-04-22T05:56:23.830Z,20.57
2019-04-22T05:57:27.524Z,22.60
2019-04-22T05:58:38.122Z,20.20
2019-04-22T05:59:45.744Z,18.30
2019-04-22T06:01:36.539Z,19.87
2019-04-22T06:02:25.305Z,19.30
2019-04-22T06:03:21.003Z,19.37
2019-04-22T06:04:29.454Z,20.17
2019-04-22T06:05:45.312Z,18.23
2019-04-22T06:06:46.900Z,21.50
2019-04-22T06:08:02.456Z,18.00
2019-04-22T06:09:10.591Z,21.97
2019-04-22T06:10:30.799Z,28.83
2019-04-22T06:12:41.715Z,17.63
2019-04-22T06:13:51.995Z,18.53
2019-04-22T06:15:08.233Z,18.03
2019-04-22T06:16:18.549Z,21.50
2019-04-22T06:18:33.405Z,20.93
2019-04-22T06:19:49.126Z,16.90
2019-04-22T06:21:04.265Z,19.23
2019-04-22T06:22:09.640Z,17.43
2019-04-22T06:24:26.090Z,17.43
2019-04-22T06:25:38.821Z,15.27
2019-04-22T06:26:56.761Z,17.40
2019-04-22T06:27:48.295Z,19.97
2019-04-22T06:28:58.719Z,24.40
2019-04-22T06:30:04.942Z,16.63
2019-04-22T06:31:23.032Z,19.30
2019-04-22T06:32:28.027Z,17.57
2019-04-22T06:33:54.396Z,16.60
2019-04-22T06:35:07.989Z,15.30
2019-04-22T06:35:50.106Z,16.40
2019-04-22T06:37:05.333Z,16.73
2019-04-22T06:38:31.599Z,15.37
2019-04-22T06:39:26.134Z,18.53
2019-04-22T06:40:29.589Z,17.23
2019-04-22T06:42:42.475Z,13.30
2019-04-22T06:43:55.965Z,16.00
2019-04-22T06:45:02.288Z,17.90
2019-04-22T06:46:08.100Z,16.20
2019-04-22T06:47:15.003Z,15.90
2019-04-22T06:48:27.525Z,17.40
2019-04-22T06:49:33.233Z,14.97
2019-04-22T06:50:45.888Z,16.60
2019-04-22T06:52:07.981Z,14.50
2019-04-22T06:52:56.796Z,15.93
2019-04-22T06:54:07.741Z,19.50
2019-04-22T06:55:15.137Z,13.60
2019-04-22T06:56:35.189Z,18.83
2019-04-22T06:57:28.007Z,14.90
2019-04-22T06:58:44.038Z,16.80
2019-04-22T06:59:51.804Z,12.67
2019-04-22T07:00:59.409Z,15.63
2019-04-22T07:02:14.889Z,16.53
2019-04-22T07:04:25.644Z,17.43
2019-04-22T07:05:27.538Z,12.10
2019-04-22T07:06:42.122Z,16.83
2019-04-22T07:07:45.310Z,15.43
2019-04-22T07:09:13.938Z,14.57
2019-04-22T07:10:18.125Z,15.73
2019-04-22T07:11:07.844Z,14.60
2019-04-22T07:12:24.742Z,14.37
2019-04-22T07:14:47.200Z,12.33
2019-04-22T07:15:50.326Z,13.20
2019-04-22T07:16:56.088Z,16.67
2019-04-22T07:18:11.616Z,14.00
2019-04-22T07:19:17.506Z,15.00
2019-04-22T07:20:23.797Z,15.60
2019-04-22T07:21:33.492Z,19.60
2019-04-22T07:22:41.812Z,13.23
2019-04-22T07:24:02.756Z,13.67
2019-04-22T07:24:58.895Z,15.03
2019-04-22T07:26:04.643Z,12.60
2019-04-22T07:27:18.804Z,11.73
2019-04-22T07:28:20.105Z,13.60
2019-04-22T07:29:37.497Z,13.43
2019-04-22T07:31:02.433Z,14.33
2019-04-22T07:31:55.728Z,14.70
2019-04-22T07:34:15.767Z,16.17
2019-04-22T07:35:22.757Z,13.67
2019-04-22T07:37:37.073Z,12.50
2019-04-22T07:38:40.913Z,11.90
2019-04-22T07:40:02.260Z,13.50
2019-04-22T07:40:56.263Z,15.77
2019-04-22T07:42:17.089Z,20.00
2019-04-22T07:45:39.149Z,17.27
2019-04-22T07:46:50.002Z,14.73
2019-04-22T07:49:06.323Z,15.17
2019-04-22T07:50:22.955Z,11.87
2019-04-22T07:51:20.216Z,14.97
2019-04-22T07:52:27.607Z,15.83
2019-04-22T07:53:37.141Z,16.13
2019-04-22T07:54:50.960Z,13.73
2019-04-22T07:55:55.468Z,13.10
2019-04-22T07:57:11.668Z,14.10
2019-04-22T07:58:16.766Z,11.13
2019-04-22T07:59:22.445Z,12.10
2019-04-22T08:00:33.055Z,14.53
2019-04-22T08:01:35.481Z,12.83
2019-04-22T08:07:21.801Z,10.57
2019-04-22T08:09:47.807Z,13.67
2019-04-22T08:10:48.634Z,13.33
2019-04-22T08:11:55.917Z,11.07
2019-04-22T08:13:03.767Z,12.13
2019-04-22T08:14:15.692Z,13.27
2019-04-22T08:15:31.239Z,11.33
2019-04-22T08:16:35.114Z,12.70
2019-04-22T08:18:00.257Z,10.93
2019-04-22T08:18:46.030Z,19.27
2019-04-22T08:20:02.711Z,12.00
2019-04-22T08:21:10.530Z,15.53
2019-04-22T08:22:15.697Z,19.67
2019-04-22T08:24:41.811Z,13.83
2019-04-22T08:25:45.851Z,11.03
2019-04-22T08:26:54.674Z,15.90
2019-04-22T08:28:03.305Z,13.17
2019-04-22T08:29:17.473Z,15.30
2019-04-22T08:30:23.425Z,11.40
2019-04-22T08:32:41.634Z,13.97
2019-04-22T08:33:47.812Z,14.50
2019-04-22T08:34:58.078Z,14.50
2019-04-22T08:36:18.032Z,12.63
2019-04-22T08:37:41.446Z,15.17
2019-04-22T08:38:34.145Z,14.90
2019-04-22T08:39:40.551Z,10.10
2019-04-22T08:40:45.575Z,12.10
2019-04-22T08:41:39.908Z,16.33
2019-04-22T08:44:10.549Z,15.33
2019-04-22T08:45:14.343Z,15.63
2019-04-22T08:46:30.271Z,10.57
2019-04-22T08:48:48.383Z,13.90
2019-04-22T08:51:00.821Z,14.60
2019-04-22T08:53:40.371Z,13.97
2019-04-22T08:54:33.962Z,12.60
2019-04-22T08:55:38.207Z,10.20
2019-04-22T08:56:46.040Z,19.43
2019-04-22T08:58:16.756Z,13.17
2019-04-22T08:59:10.979Z,11.90
2019-04-22T09:00:07.038Z,14.67
2019-04-22T09:01:23.876Z,12.50
2019-04-22T09:02:32.704Z,10.47
2019-04-22T09:03:38.245Z,11.17
2019-04-22T09:04:42.074Z,12.20
2019-04-22T09:06:04.894Z,10.47
2019-04-22T09:07:12.718Z,13.13
2019-04-22T09:08:14.269Z,13.37
2019-04-22T09:09:25.018Z,10.90
2019-04-22T09:10:40.012Z,11.80
2019-04-22T09:11:47.097Z,10.77
2019-04-22T09:14:06.174Z,15.40
2019-04-22T09:15:08.174Z,12.13
2019-04-22T09:16:20.718Z,12.90
2019-04-22T09:17:39.815Z,15.20
2019-04-22T09:18:34.763Z,13.60
2019-04-22T09:19:38.572Z,10.10
2019-04-22T09:21:02.627Z,10.00
2019-04-22T09:22:03.365Z,12.63
2019-04-22T09:23:07.267Z,10.20
2019-04-22T09:24:16.569Z,9.50
2019-04-22T09:25:27.418Z,9.83
2019-04-22T09:26:36.008Z,10.37
2019-04-22T09:27:47.904Z,14.40
2019-04-22T09:29:05.839Z,15.03
2019-04-22T09:30:01.233Z,9.57
2019-04-22T09:31:14.964Z,9.73
2019-04-22T09:32:19.006Z,12.93
2019-04-22T09:33:27.646Z,9.53
2019-04-22T09:34:33.914Z,16.63
2019-04-22T09:35:45.364Z,11.63
2019-04-22T09:36:59.474Z,12.20
2019-04-22T09:38:16.975Z,15.43
2019-04-22T09:39:10.620Z,9.40
2019-04-22T09:40:28.387Z,12.30
2019-04-22T09:41:40.136Z,8.30
2019-04-22T09:42:51.800Z,10.70
2019-04-22T09:43:56.607Z,12.00
2019-04-22T09:45:05.773Z,9.00
2019-04-22T09:46:19.743Z,10.70
2019-04-22T09:47:29.653Z,10.20
2019-04-22T09:48:41.750Z,10.53
2019-04-22T09:50:48.210Z,12.53
2019-04-22T09:51:58.197Z,11.03
2019-04-22T09:53:08.648Z,8.37
2019-04-22T09:54:22.150Z,13.07
2019-04-22T09:55:26.162Z,8.80
2019-04-22T09:56:42.186Z,9.13
2019-04-22T09:57:39.740Z,8.10
2019-04-22T09:58:50.500Z,9.17
2019-04-22T10:00:02.297Z,10.60
2019-04-22T10:01:26.103Z,8.00
2019-04-22T10:03:36.564Z,13.23
2019-04-22T10:04:46.570Z,9.60
2019-04-22T10:06:01.296Z,14.07
2019-04-22T10:07:01.034Z,9.80
2019-04-22T10:08:21.788Z,14.10
2019-04-22T10:09:34.256Z,8.27
2019-04-22T10:10:29.549Z,9.97
2019-04-22T10:11:56.420Z,8.00
2019-04-22T10:13:03.161Z,9.07
2019-04-22T10:14:12.349Z,9.73
2019-04-22T10:15:19.523Z,15.20
2019-04-22T10:16:37.089Z,13.30
2019-04-22T10:17:36.741Z,10.20
2019-04-22T10:18:48.995Z,17.00
2019-04-22T10:19:53.054Z,13.30
2019-04-22T10:21:08.667Z,9.90
2019-04-22T10:22:23.965Z,6.33
2019-04-22T10:23:25.419Z,7.03
2019-04-22T10:24:29.629Z,8.93
2019-04-22T10:25:35.055Z,10.93
2019-04-22T10:28:01.862Z,10.13
2019-04-22T10:29:08.549Z,11.10
2019-04-22T10:30:16.444Z,8.90
2019-04-22T10:31:28.089Z,10.27
2019-04-22T10:32:33.589Z,7.40
2019-04-22T10:33:38.367Z,8.60
2019-04-22T10:34:38.812Z,9.67
2019-04-22T10:35:39.458Z,8.87
2019-04-22T10:36:51.027Z,7.20
2019-04-22T10:37:54.792Z,9.30
2019-04-22T10:39:02.288Z,9.60
2019-04-22T10:40:17.773Z,9.60
2019-04-22T10:41:24.716Z,6.40
2019-04-22T10:42:41.295Z,13.47
2019-04-22T10:43:48.216Z,8.60
2019-04-22T10:44:55.597Z,10.13
2019-04-22T10:46:04.105Z,7.50
2019-04-22T10:47:11.870Z,8.60
2019-04-22T10:48:18.793Z,9.73
2019-04-22T10:49:26.578Z,9.40
2019-04-22T10:50:46.652Z,11.47
2019-04-22T10:51:54.978Z,11.40
2019-04-22T10:53:01.971Z,9.63
2019-04-22T10:54:09.639Z,7.87
2019-04-22T10:55:17.254Z,7.03
2019-04-22T10:56:25.296Z,7.57
2019-04-22T10:57:32.134Z,8.53
2019-04-22T10:58:40.347Z,7.43
2019-04-22T10:59:47.287Z,7.40
2019-04-22T11:00:54.722Z,10.37
2019-04-22T11:02:03.412Z,13.97
2019-04-22T11:03:14.034Z,10.47
2019-04-22T11:04:21.622Z,11.27
2019-04-22T11:05:30.180Z,8.03
2019-04-22T11:06:42.594Z,7.87
2019-04-22T11:07:51.958Z,8.60
2019-04-22T11:08:59.268Z,9.20
2019-04-22T11:10:20.628Z,8.43
2019-04-22T11:11:25.950Z,30.03
2019-04-22T11:12:24.730Z,9.87
2019-04-22T11:13:29.436Z,12.30
2019-04-22T11:14:37.208Z,7.30
2019-04-22T11:15:44.671Z,7.47
2019-04-22T11:16:53.188Z,7.03
2019-04-22T11:18:01.870Z,8.57
2019-04-22T11:19:09.817Z,8.97
2019-04-22T11:20:17.729Z,9.20
2019-04-22T11:21:25.385Z,11.00
2019-04-22T11:22:36.589Z,8.20
2019-04-22T11:23:42.335Z,12.10
2019-04-22T11:24:50.824Z,8.97
2019-04-22T11:25:59.567Z,8.87
2019-04-22T11:27:07.049Z,8.70
2019-04-22T11:28:16.049Z,9.80
2019-04-22T11:29:23.752Z,10.07
2019-04-22T11:30:32.408Z,9.30
2019-04-22T11:31:39.412Z,9.60
2019-04-22T11:32:46.591Z,8.97
2019-04-22T11:33:54.443Z,9.33
2019-04-22T11:35:01.801Z,7.10
2019-04-22T11:36:10.039Z,9.53
2019-04-22T11:37:16.932Z,11.97
2019-04-22T11:38:24.669Z,11.37
2019-04-22T11:39:36.127Z,13.20
2019-04-22T11:40:45.520Z,18.07
2019-04-22T11:41:49.966Z,11.00
2019-04-22T11:42:59.597Z,16.53
2019-04-22T11:44:07.569Z,8.90
2019-04-22T11:45:15.314Z,12.00
2019-04-22T11:46:23.248Z,9.63
2019-04-22T11:47:30.032Z,9.00
2019-04-22T11:48:38.097Z,10.40
2019-04-22T11:49:45.843Z,7.53
2019-04-22T11:50:53.741Z,8.33
2019-04-22T11:52:01.042Z,8.07
2019-04-22T11:53:08.952Z,8.37
2019-04-22T11:54:16.980Z,7.77
2019-04-22T11:55:24.625Z,8.00
2019-04-22T11:56:31.806Z,10.83
2019-04-22T11:57:39.246Z,8.97
2019-04-22T11:58:46.951Z,12.33
2019-04-22T11:59:54.677Z,12.30
2019-04-22T12:01:04.160Z,8.33
2019-04-22T12:02:11.989Z,7.77
2019-04-22T12:03:20.989Z,9.53
2019-04-22T12:04:27.930Z,10.63
2019-04-22T12:05:34.810Z,9.90
2019-04-22T12:06:41.973Z,9.50
2019-04-22T12:07:49.096Z,8.90
2019-04-22T12:08:57.419Z,12.03
2019-04-22T12:10:17.836Z,8.20
2019-04-22T12:11:13.789Z,7.17
2019-04-22T12:12:21.591Z,8.93
2019-04-22T12:13:28.459Z,13.93
2019-04-22T12:14:36.226Z,15.57
2019-04-22T12:15:43.090Z,9.13
2019-04-22T12:16:49.857Z,9.63
2019-04-22T12:17:57.351Z,7.77
2019-04-22T12:19:05.085Z,9.70
2019-04-22T12:20:16.510Z,8.50
2019-04-22T12:21:24.055Z,22.07
2019-04-22T12:22:31.800Z,10.70
2019-04-22T12:23:39.317Z,8.07
2019-04-22T12:24:46.278Z,10.87
2019-04-22T12:26:00.915Z,9.43
2019-04-22T12:27:04.287Z,6.47
2019-04-22T12:28:11.268Z,7.20
2019-04-22T12:29:17.990Z,7.10
2019-04-22T12:30:25.706Z,9.67
2019-04-22T12:31:33.483Z,8.83
2019-04-22T12:32:41.167Z,9.60
2019-04-22T12:33:49.308Z,9.10
2019-04-22T12:34:57.479Z,11.13
2019-04-22T12:36:04.689Z,9.00
2019-04-22T12:37:17.398Z,7.57
2019-04-22T12:38:21.985Z,9.70
2019-04-22T12:39:29.562Z,11.00
2019-04-22T12:40:46.769Z,6.70
2019-04-22T12:41:46.476Z,10.63
2019-04-22T12:42:53.584Z,5.90
2019-04-22T12:44:01.072Z,6.10
2019-04-22T12:45:12.159Z,8.23
2019-04-22T12:46:20.487Z,7.83
2019-04-22T12:47:28.304Z,7.83
2019-04-22T12:48:35.160Z,7.97
2019-04-22T12:49:42.496Z,9.00
2019-04-22T12:50:53.877Z,6.77
2019-04-22T12:51:59.183Z,7.27
2019-04-22T12:53:10.655Z,10.17
2019-04-22T12:54:17.010Z,8.00
2019-04-22T12:55:24.201Z,7.87
2019-04-22T12:56:31.140Z,6.93
2019-04-22T12:57:38.872Z,5.93
2019-04-22T12:58:47.554Z,7.43
2019-04-22T12:59:55.415Z,7.47
2019-04-22T13:01:03.362Z,7.40
2019-04-22T13:02:11.209Z,5.00
2019-04-22T13:03:20.175Z,8.47
2019-04-22T13:04:27.950Z,4.97
2019-04-22T13:05:35.345Z,6.93
2019-04-22T13:06:44.029Z,6.13
2019-04-22T13:07:51.641Z,6.70
2019-04-22T13:09:00.260Z,6.20
2019-04-22T13:10:10.120Z,6.17
2019-04-22T13:11:21.387Z,4.80
2019-04-22T13:12:26.674Z,6.80
2019-04-22T13:13:34.616Z,4.83
2019-04-22T13:14:43.280Z,11.50
2019-04-22T13:15:51.013Z,7.67
2019-04-22T13:16:57.911Z,7.20
2019-04-22T13:18:13.752Z,7.97
2019-04-22T13:19:17.056Z,11.13
2019-04-22T13:20:24.311Z,4.43
2019-04-22T13:21:31.286Z,8.00
2019-04-22T13:22:38.855Z,3.67
2019-04-22T13:23:46.628Z,8.50
2019-04-22T13:24:54.138Z,5.03
2019-04-22T13:26:01.342Z,6.37
2019-04-22T13:27:08.876Z,4.97
2019-04-22T13:28:16.081Z,7.20
2019-04-22T13:29:23.477Z,8.33
2019-04-22T13:30:32.551Z,5.73
2019-04-22T13:31:40.435Z,5.03
2019-04-22T13:32:47.389Z,4.67
2019-04-22T13:33:57.239Z,5.80
2019-04-22T13:35:05.782Z,4.43
2019-04-22T13:36:13.014Z,5.90
2019-04-22T13:37:20.889Z,4.40
2019-04-22T13:38:29.065Z,4.10
2019-04-22T13:39:36.729Z,3.37
2019-04-22T13:40:59.274Z,4.57
2019-04-22T13:41:59.311Z,4.27
2019-04-22T13:43:01.105Z,3.67
2019-04-22T13:44:09.120Z,5.03
2019-04-22T13:45:18.012Z,3.63
2019-04-22T13:46:26.350Z,3.80
2019-04-22T13:47:50.609Z,3.77
2019-04-22T13:49:08.552Z,4.80
2019-04-22T13:50:25.568Z,4.03
2019-04-22T13:51:30.099Z,5.30
2019-04-22T13:52:46.382Z,7.97
2019-04-22T13:54:13.770Z,3.60
2019-04-22T13:55:57.493Z,6.90
2019-04-22T13:56:56.938Z,5.30
2019-04-22T13:58:05.870Z,3.80
2019-04-22T13:59:11.303Z,5.13
2019-04-22T14:00:12.230Z,5.80
2019-04-22T14:01:22.932Z,4.70
2019-04-22T14:02:48.629Z,14.43
2019-04-22T14:04:10.258Z,11.90
2019-04-22T14:05:19.034Z,5.33
2019-04-22T14:06:26.917Z,4.43
2019-04-22T14:07:34.751Z,4.80
2019-04-22T14:08:43.111Z,5.20
2019-04-22T14:09:50.736Z,4.10
2019-04-22T14:11:09.924Z,5.10
2019-04-22T14:12:08.178Z,3.53
2019-04-22T14:13:16.154Z,4.70
2019-04-22T14:14:24.010Z,3.97
2019-04-22T14:15:33.864Z,3.50
2019-04-22T14:16:42.482Z,6.73
2019-04-22T14:17:49.721Z,4.30
2019-04-22T14:18:58.113Z,6.27
2019-04-22T14:20:06.770Z,6.03
2019-04-22T14:21:14.961Z,3.80
2019-04-22T14:22:22.257Z,3.47
2019-04-22T14:23:30.782Z,6.17
2019-04-22T14:24:38.631Z,4.50
2019-04-22T14:25:46.397Z,8.20
2019-04-22T14:27:08.565Z,7.87
2019-04-22T14:28:09.125Z,4.67
2019-04-22T14:29:11.805Z,3.70
2019-04-22T14:30:19.238Z,5.90
2019-04-22T14:31:26.733Z,8.40
2019-04-22T14:32:36.065Z,4.13
2019-04-22T14:33:46.438Z,4.73
2019-04-22T14:34:51.394Z,3.40
2019-04-22T14:35:58.571Z,4.07
2019-04-22T14:37:05.777Z,3.90
2019-04-22T14:38:14.169Z,5.83
2019-04-22T14:39:21.954Z,3.30
2019-04-22T14:40:30.390Z,7.60
2019-04-22T14:41:55.348Z,4.47
2019-04-22T14:43:07.800Z,20.33
2019-04-22T14:44:56.591Z,4.27
2019-04-22T14:45:30.739Z,18.03
2019-04-22T14:46:39.146Z,9.77
2019-04-22T14:47:49.479Z,4.43
2019-04-22T14:48:49.743Z,2.83
2019-04-22T14:50:00.854Z,3.87
2019-04-22T14:51:07.433Z,12.03
2019-04-22T14:52:21.488Z,3.77
2019-04-22T14:53:29.013Z,4.87
2019-04-22T14:54:26.570Z,4.47
2019-04-22T14:55:28.647Z,4.87
2019-04-22T14:56:34.036Z,4.80
2019-04-22T14:57:42.288Z,6.43
2019-04-22T14:58:50.889Z,3.80
2019-04-22T14:59:57.898Z,5.37
2019-04-22T15:01:06.852Z,11.77
2019-04-22T15:02:15.991Z,8.20
2019-04-22T15:03:23.885Z,6.63
2019-04-22T15:04:31.197Z,13.40
2019-04-22T15:05:40.068Z,6.93
2019-04-22T15:06:49.878Z,6.50
2019-04-22T15:07:57.430Z,9.07
2019-04-22T15:09:08.048Z,7.80
2019-04-22T15:10:17.724Z,4.33
2019-04-22T15:11:24.901Z,6.67
2019-04-22T15:12:39.105Z,10.83
2019-04-22T15:13:41.233Z,3.63
2019-04-22T15:14:48.929Z,5.23
2019-04-22T15:16:25.674Z,7.00
2019-04-22T15:17:49.275Z,5.70
2019-04-22T15:19:11.634Z,4.77
2019-04-22T15:20:39.650Z,5.97
2019-04-22T15:21:47.167Z,4.60
2019-04-22T15:22:54.817Z,5.00
2019-04-22T15:24:20.610Z,8.87
2019-04-22T15:25:28.370Z,10.23
2019-04-22T15:26:35.484Z,13.77
2019-04-22T15:27:43.464Z,8.03
2019-04-22T15:28:51.412Z,8.50
2019-04-22T15:29:59.352Z,8.20
2019-04-22T15:31:06.831Z,6.53
2019-04-22T15:32:13.862Z,5.20
2019-04-22T15:33:21.487Z,7.33
2019-04-22T15:34:28.388Z,5.80
2019-04-22T15:35:37.612Z,5.73
2019-04-22T15:36:44.608Z,8.63
2019-04-22T15:37:52.987Z,16.20
2019-04-22T15:39:00.028Z,6.77
2019-04-22T15:40:08.877Z,7.83
2019-04-22T15:41:16.635Z,6.17
2019-04-22T15:42:28.768Z,13.60
2019-04-22T15:43:35.509Z,6.53
2019-04-22T15:44:44.067Z,11.23
2019-04-22T15:45:51.052Z,16.80
2019-04-22T15:46:57.787Z,6.80
2019-04-22T15:48:06.398Z,7.37
2019-04-22T15:49:13.787Z,6.50
2019-04-22T15:50:22.383Z,12.70
2019-04-22T15:51:30.823Z,6.50
2019-04-22T15:52:44.480Z,12.73
2019-04-22T15:53:47.495Z,11.30
2019-04-22T15:54:54.473Z,5.30
2019-04-22T15:56:03.077Z,10.17
2019-04-22T15:57:10.842Z,7.60
2019-04-22T15:58:17.773Z,9.20
2019-04-22T15:59:44.475Z,6.43
2019-04-22T16:00:44.499Z,13.43
2019-04-22T16:01:42.955Z,8.23
2019-04-22T16:02:51.746Z,6.70
2019-04-22T16:03:58.940Z,5.90
2019-04-22T16:05:06.646Z,10.83
2019-04-22T16:06:15.742Z,8.47
2019-04-22T16:07:25.969Z,8.63
2019-04-22T16:08:34.199Z,6.40
2019-04-22T16:09:41.693Z,11.10
2019-04-22T16:10:48.726Z,8.33
2019-04-22T16:12:09.361Z,5.90
2019-04-22T16:13:11.306Z,8.70
2019-04-22T16:14:22.982Z,6.03
2019-04-22T16:15:24.536Z,20.23
2019-04-22T16:16:32.465Z,23.63
2019-04-22T16:17:40.416Z,10.83
2019-04-22T16:18:48.574Z,7.87
2019-04-22T16:19:57.189Z,21.03
2019-04-22T16:21:04.876Z,9.23
2019-04-22T16:22:16.889Z,11.63
2019-04-22T16:23:32.290Z,7.00
2019-04-22T16:25:09.003Z,6.00
2019-04-22T16:26:20.258Z,6.93
2019-04-22T16:27:27.976Z,6.60
2019-04-22T16:28:35.643Z,11.80
2019-04-22T16:29:43.190Z,12.63
2019-04-22T16:30:51.125Z,8.83
2019-04-22T16:31:58.633Z,6.17
2019-04-22T16:33:07.820Z,4.47
2019-04-22T16:34:15.512Z,15.13
2019-04-22T16:35:22.599Z,6.77
2019-04-22T16:36:31.085Z,9.30
2019-04-22T16:37:38.957Z,12.33
2019-04-22T16:38:46.882Z,11.80
2019-04-22T16:39:54.747Z,11.53
2019-04-22T16:41:02.942Z,7.60
2019-04-22T16:42:14.468Z,11.47
2019-04-22T16:43:19.466Z,6.47